Time,TemperatureF,DewpointF,PressureIn,WindDirection,WindDirectionDegrees,WindSpeedMPH,WindSpeedGustMPH,Humidity,HourlyPrecipIn,Conditions,Clouds,dailyrainin,SoftwareType,DateUTC
2013-01-18 00:03:00,62.0,52.0,30.11,WNW,299,13.0,25.0,70,0.00,,,0.00,,2013-01-18 05:03:00,
2013-01-18 00:12:00,62.0,52.0,30.11,WNW,299,13.0,25.0,70,0.00,,,0.00,,2013-01-18 05:12:00,
2013-01-18 00:22:00,62.0,52.0,30.11,WNW,293,9.0,21.0,71,0.00,,,0.00,,2013-01-18 05:22:00,
2013-01-18 00:33:00,62.0,53.0,30.12,WNW,292,12.0,21.0,72,0.00,,,0.00,,2013-01-18 05:33:00,
2013-01-18 00:42:00,62.0,53.0,30.12,WNW,292,12.0,21.0,72,0.00,,,0.00,,2013-01-18 05:42:00,
2013-01-18 00:53:00,62.0,53.0,30.12,NW,319,7.0,20.0,72,0.00,,,0.00,,2013-01-18 05:53:00,
2013-01-18 01:02:00,62.0,52.0,30.12,West,281,10.0,18.0,71,0.00,,,0.00,,2013-01-18 06:02:00,
2013-01-18 01:12:00,62.0,52.0,30.12,West,281,10.0,18.0,71,0.00,,,0.00,,2013-01-18 06:12:00,
2013-01-18 01:22:00,62.0,53.0,30.13,WNW,299,15.0,22.0,72,0.00,,,0.00,,2013-01-18 06:22:00,
2013-01-18 01:33:00,62.0,53.0,30.12,NW,306,9.0,20.0,72,0.00,,,0.00,,2013-01-18 06:33:00,
2013-01-18 01:43:00,62.0,53.0,30.12,NW,306,9.0,20.0,72,0.00,,,0.00,,2013-01-18 06:43:00,
2013-01-18 01:53:00,61.0,52.0,30.12,WNW,291,10.0,21.0,72,0.00,,,0.00,,2013-01-18 06:53:00,
2013-01-18 02:02:00,61.0,52.0,30.12,NW,307,12.0,20.0,71,0.00,,,0.00,,2013-01-18 07:02:00,
2013-01-18 02:12:00,61.0,52.0,30.12,NW,307,12.0,20.0,71,0.00,,,0.00,,2013-01-18 07:12:00,
2013-01-18 02:22:00,61.0,52.0,30.12,West,275,10.0,20.0,73,0.00,,,0.00,,2013-01-18 07:22:00,
2013-01-18 02:32:00,61.0,52.0,30.12,WNW,302,10.0,18.0,71,0.00,,,0.00,,2013-01-18 07:32:00,
2013-01-18 02:42:00,61.0,52.0,30.12,WNW,302,10.0,18.0,71,0.00,,,0.00,,2013-01-18 07:42:00,
2013-01-18 02:52:00,61.0,52.0,30.12,WNW,296,10.0,22.0,71,0.00,,,0.00,,2013-01-18 07:52:00,
2013-01-18 03:02:00,61.0,52.0,30.12,WNW,289,9.0,18.0,71,0.00,,,0.00,,2013-01-18 08:02:00,
2013-01-18 03:12:00,61.0,52.0,30.12,WNW,289,9.0,18.0,71,0.00,,,0.00,,2013-01-18 08:12:00,
2013-01-18 03:22:00,60.0,52.0,30.12,NNW,330,7.0,17.0,75,0.00,,,0.00,,2013-01-18 08:22:00,
2013-01-18 03:32:00,60.0,52.0,30.13,West,280,6.0,15.0,76,0.00,,,0.00,,2013-01-18 08:32:00,
2013-01-18 03:42:00,60.0,52.0,30.13,West,280,6.0,15.0,76,0.00,,,0.00,,2013-01-18 08:42:00,
2013-01-18 03:53:00,60.0,52.0,30.13,WNW,302,7.0,15.0,74,0.00,,,0.00,,2013-01-18 08:53:00,
2013-01-18 04:03:00,59.0,51.0,30.13,NNW,327,5.0,17.0,74,0.00,,,0.00,,2013-01-18 09:03:00,
2013-01-18 04:12:00,59.0,51.0,30.13,NNW,327,5.0,17.0,74,0.00,,,0.00,,2013-01-18 09:12:00,
2013-01-18 04:22:00,58.0,50.0,30.14,NNW,342,7.0,16.0,74,0.00,,,0.00,,2013-01-18 09:22:00,
2013-01-18 04:33:00,58.0,50.0,30.14,NNW,340,5.0,14.0,74,0.00,,,0.00,,2013-01-18 09:33:00,
2013-01-18 04:42:00,58.0,50.0,30.14,NNW,340,5.0,14.0,74,0.00,,,0.00,,2013-01-18 09:42:00,
2013-01-18 04:53:00,57.0,49.0,30.14,NNW,339,7.0,14.0,75,0.00,,,0.00,,2013-01-18 09:53:00,
2013-01-18 05:03:00,57.0,49.0,30.14,North,353,5.0,13.0,75,0.00,,,0.00,,2013-01-18 10:03:00,
2013-01-18 05:12:00,57.0,49.0,30.14,North,353,5.0,13.0,75,0.00,,,0.00,,2013-01-18 10:12:00,
2013-01-18 05:22:00,56.0,49.0,30.14,NW,319,5.0,14.0,77,0.00,,,0.00,,2013-01-18 10:22:00,
2013-01-18 05:32:00,56.0,49.0,30.15,NNW,341,9.0,13.0,76,0.00,,,0.00,,2013-01-18 10:32:00,
2013-01-18 05:42:00,56.0,49.0,30.15,NNW,341,9.0,13.0,76,0.00,,,0.00,,2013-01-18 10:42:00,
2013-01-18 05:53:00,55.0,48.0,30.16,North,356,5.0,12.0,78,0.00,,,0.00,,2013-01-18 10:53:00,
2013-01-18 06:02:00,55.0,48.0,30.16,North,350,7.0,13.0,77,0.00,,,0.00,,2013-01-18 11:02:00,
2013-01-18 06:12:00,55.0,48.0,30.16,North,350,7.0,13.0,77,0.00,,,0.00,,2013-01-18 11:12:00,
2013-01-18 06:23:00,55.0,49.0,30.16,North,358,6.0,13.0,79,0.00,,,0.00,,2013-01-18 11:23:00,
2013-01-18 06:32:00,55.0,49.0,30.17,ENE,75,5.0,14.0,79,0.00,,,0.00,,2013-01-18 11:32:00,
2013-01-18 06:42:00,55.0,49.0,30.17,ENE,75,5.0,14.0,79,0.00,,,0.00,,2013-01-18 11:42:00,
2013-01-18 06:53:00,54.0,47.0,30.18,NNW,348,7.0,15.0,78,0.00,,,0.00,,2013-01-18 11:53:00,
2013-01-18 07:03:00,54.0,48.0,30.18,NNW,343,5.0,14.0,79,0.00,,,0.00,,2013-01-18 12:03:00,
2013-01-18 07:12:00,54.0,48.0,30.18,NNW,343,5.0,14.0,79,0.00,,,0.00,,2013-01-18 12:12:00,
2013-01-18 07:23:00,54.0,47.0,30.19,NNW,340,6.0,14.0,78,0.00,,,0.00,,2013-01-18 12:23:00,
2013-01-18 07:33:00,54.0,48.0,30.20,NNW,339,6.0,12.0,79,0.00,,,0.00,,2013-01-18 12:33:00,
2013-01-18 07:43:00,54.0,48.0,30.20,NNW,339,6.0,12.0,79,0.00,,,0.00,,2013-01-18 12:43:00,
2013-01-18 07:51:00,50.0,42.0,30.23,North,0,9.0,15.0,73,0.00,,,0.00,,2013-01-18 12:51:00,
2013-01-18 07:53:00,52.0,44.0,30.22,NNW,344,10.0,17.0,74,0.00,,,0.00,,2013-01-18 12:53:00,
2013-01-18 08:03:00,51.0,43.0,30.22,NNW,345,9.0,17.0,74,0.00,,,0.00,,2013-01-18 13:03:00,
2013-01-18 08:12:00,51.0,43.0,30.22,NNW,345,9.0,17.0,74,0.00,,,0.00,,2013-01-18 13:12:00,
2013-01-18 08:23:00,50.0,42.0,30.23,North,0,9.0,15.0,73,0.00,,,0.00,,2013-01-18 13:23:00,
2013-01-18 08:33:00,50.0,42.0,30.23,North,0,9.0,15.0,73,0.00,,,0.00,,2013-01-18 13:33:00,
2013-01-18 08:43:00,50.0,42.0,30.23,North,0,9.0,15.0,73,0.00,,,0.00,,2013-01-18 13:43:00,
2013-01-18 11:03:00,51.0,41.0,30.27,ENE,64,3.0,12.0,68,0.00,,,0.00,,2013-01-18 16:03:00,
2013-01-18 11:13:00,51.0,41.0,30.27,ENE,64,3.0,12.0,68,0.00,,,0.00,,2013-01-18 16:13:00,
2013-01-18 11:23:00,53.0,43.0,30.27,NE,35,4.0,13.0,70,0.00,,,0.00,,2013-01-18 16:23:00,
2013-01-18 11:33:00,54.0,44.0,30.27,ESE,105,4.0,9.0,68,0.00,,,0.00,,2013-01-18 16:33:00,
2013-01-18 11:42:00,54.0,44.0,30.27,ESE,105,4.0,9.0,68,0.00,,,0.00,,2013-01-18 16:42:00,
2013-01-18 11:53:00,54.0,43.0,30.26,ENE,63,7.0,15.0,67,0.00,,,0.00,,2013-01-18 16:53:00,
2013-01-18 12:03:00,55.0,44.0,30.26,NE,36,6.0,13.0,67,0.00,,,0.00,,2013-01-18 17:03:00,
2013-01-18 12:13:00,55.0,44.0,30.26,NE,36,6.0,13.0,67,0.00,,,0.00,,2013-01-18 17:13:00,
2013-01-18 12:23:00,56.0,45.0,30.25,ENE,71,5.0,10.0,67,0.00,,,0.00,,2013-01-18 17:23:00,
2013-01-18 12:33:00,57.0,46.0,30.25,ENE,65,7.0,12.0,67,0.00,,,0.00,,2013-01-18 17:33:00,
2013-01-18 12:43:00,57.0,46.0,30.25,ENE,65,7.0,12.0,67,0.00,,,0.00,,2013-01-18 17:43:00,
2013-01-18 12:53:00,57.0,46.0,30.23,NW,322,3.0,10.0,66,0.00,,,0.00,,2013-01-18 17:53:00,
2013-01-18 13:03:00,58.0,46.0,30.22,East,91,3.0,8.0,65,0.00,,,0.00,,2013-01-18 18:03:00,
2013-01-18 13:13:00,58.0,46.0,30.22,East,91,3.0,8.0,65,0.00,,,0.00,,2013-01-18 18:13:00,
2013-01-18 13:23:00,60.0,49.0,30.21,NNE,29,2.0,10.0,66,0.00,,,0.00,,2013-01-18 18:23:00,
2013-01-18 13:33:00,59.0,47.0,30.21,NE,52,2.0,7.0,64,0.00,,,0.00,,2013-01-18 18:33:00,
2013-01-18 13:43:00,59.0,47.0,30.21,NE,52,2.0,7.0,64,0.00,,,0.00,,2013-01-18 18:43:00,
2013-01-18 13:53:00,60.0,48.0,30.20,NE,56,5.0,9.0,64,0.00,,,0.00,,2013-01-18 18:53:00,
2013-01-18 14:03:00,60.0,48.0,30.19,East,81,5.0,12.0,65,0.00,,,0.00,,2013-01-18 19:03:00,
2013-01-18 14:13:00,60.0,48.0,30.19,East,81,5.0,12.0,65,0.00,,,0.00,,2013-01-18 19:13:00,
2013-01-18 14:23:00,62.0,50.0,30.19,ENE,71,5.0,12.0,64,0.00,,,0.00,,2013-01-18 19:23:00,
2013-01-18 14:33:00,62.0,49.0,30.18,North,4,5.0,12.0,62,0.00,,,0.00,,2013-01-18 19:33:00,
2013-01-18 14:43:00,62.0,49.0,30.18,North,4,5.0,12.0,62,0.00,,,0.00,,2013-01-18 19:43:00,
2013-01-18 14:53:00,64.0,51.0,30.18,North,4,5.0,14.0,62,0.00,,,0.00,,2013-01-18 19:53:00,
2013-01-18 15:03:00,64.0,51.0,30.17,NNE,27,6.0,12.0,62,0.00,,,0.00,,2013-01-18 20:03:00,
2013-01-18 15:13:00,64.0,51.0,30.17,NNE,27,6.0,12.0,62,0.00,,,0.00,,2013-01-18 20:13:00,
2013-01-18 15:23:00,64.0,51.0,30.18,NE,48,3.0,12.0,63,0.00,,,0.00,,2013-01-18 20:23:00,
2013-01-18 15:33:00,64.0,51.0,30.17,East,91,4.0,12.0,63,0.00,,,0.00,,2013-01-18 20:33:00,
2013-01-18 15:43:00,64.0,51.0,30.17,East,91,4.0,12.0,63,0.00,,,0.00,,2013-01-18 20:43:00,
2013-01-18 15:53:00,65.0,53.0,30.17,ENE,76,3.0,9.0,64,0.00,,,0.00,,2013-01-18 20:53:00,
2013-01-18 16:03:00,65.0,53.0,30.17,NNE,30,4.0,8.0,64,0.00,,,0.00,,2013-01-18 21:03:00,
2013-01-18 16:13:00,65.0,53.0,30.17,NNE,30,4.0,8.0,64,0.00,,,0.00,,2013-01-18 21:13:00,
2013-01-18 16:23:00,65.0,53.0,30.17,North,9,6.0,13.0,64,0.00,,,0.00,,2013-01-18 21:23:00,
2013-01-18 16:33:00,66.0,54.0,30.17,East,90,3.0,10.0,65,0.00,,,0.00,,2013-01-18 21:33:00,
2013-01-18 16:43:00,66.0,54.0,30.17,East,90,3.0,10.0,65,0.00,,,0.00,,2013-01-18 21:43:00,
2013-01-18 16:53:00,66.0,53.0,30.17,NE,49,4.0,9.0,64,0.00,,,0.00,,2013-01-18 21:53:00,
2013-01-18 17:03:00,66.0,54.0,30.17,North,358,3.0,9.0,65,0.00,,,0.00,,2013-01-18 22:03:00,
2013-01-18 17:12:00,66.0,54.0,30.17,North,358,3.0,9.0,65,0.00,,,0.00,,2013-01-18 22:12:00,
2013-01-18 17:23:00,66.0,54.0,30.17,ENE,71,1.0,7.0,66,0.00,,,0.00,,2013-01-18 22:23:00,
2013-01-18 17:33:00,66.0,55.0,30.18,NNE,31,4.0,8.0,67,0.00,,,0.00,,2013-01-18 22:33:00,
2013-01-18 17:43:00,66.0,55.0,30.18,NNE,31,4.0,8.0,67,0.00,,,0.00,,2013-01-18 22:43:00,
2013-01-18 17:53:00,66.0,54.0,30.18,NNE,25,3.0,9.0,66,0.00,,,0.00,,2013-01-18 22:53:00,
2013-01-18 18:03:00,66.0,55.0,30.18,NNE,25,2.0,8.0,68,0.00,,,0.00,,2013-01-18 23:03:00,
2013-01-18 18:12:00,66.0,55.0,30.18,NNE,25,2.0,8.0,68,0.00,,,0.00,,2013-01-18 23:12:00,
2013-01-18 18:23:00,66.0,55.0,30.19,NNE,15,3.0,5.0,68,0.00,,,0.00,,2013-01-18 23:23:00,
2013-01-18 18:33:00,65.0,55.0,30.19,North,11,1.0,8.0,69,0.00,,,0.00,,2013-01-18 23:33:00,
2013-01-18 18:43:00,65.0,55.0,30.19,North,11,1.0,8.0,69,0.00,,,0.00,,2013-01-18 23:43:00,
2013-01-18 18:53:00,65.0,55.0,30.19,NE,56,1.0,10.0,70,0.00,,,0.00,,2013-01-18 23:53:00,
2013-01-18 19:02:00,65.0,55.0,30.19,ENE,74,4.0,8.0,70,0.00,,,0.00,,2013-01-19 00:02:00,
2013-01-18 19:12:00,65.0,55.0,30.19,ENE,74,4.0,8.0,70,0.00,,,0.00,,2013-01-19 00:12:00,
2013-01-18 19:23:00,64.0,55.0,30.19,NE,52,2.0,5.0,73,0.00,,,0.00,,2013-01-19 00:23:00,
2013-01-18 19:33:00,64.0,55.0,30.19,NNE,13,2.0,3.0,73,0.00,,,0.00,,2013-01-19 00:33:00,
2013-01-18 19:43:00,64.0,55.0,30.19,NNE,13,2.0,3.0,73,0.00,,,0.00,,2013-01-19 00:43:00,
2013-01-18 19:53:00,64.0,56.0,30.20,NNE,20,2.0,3.0,75,0.00,,,0.00,,2013-01-19 00:53:00,
2013-01-18 20:02:00,64.0,56.0,30.21,NNE,22,2.0,6.0,75,0.00,,,0.00,,2013-01-19 01:02:00,
2013-01-18 20:12:00,64.0,56.0,30.21,NNE,22,2.0,6.0,75,0.00,,,0.00,,2013-01-19 01:12:00,
2013-01-18 20:22:00,64.0,56.0,30.20,NE,39,3.0,7.0,76,0.00,,,0.00,,2013-01-19 01:22:00,
2013-01-18 20:33:00,64.0,57.0,30.20,NNW,348,1.0,6.0,77,0.00,,,0.00,,2013-01-19 01:33:00,
2013-01-18 20:42:00,64.0,57.0,30.20,NNW,348,1.0,6.0,77,0.00,,,0.00,,2013-01-19 01:42:00,
2013-01-18 20:53:00,63.0,56.0,30.21,North,2,1.0,5.0,79,0.00,,,0.00,,2013-01-19 01:53:00,
2013-01-18 21:02:00,63.0,56.0,30.21,NNE,17,4.0,8.0,78,0.00,,,0.00,,2013-01-19 02:02:00,
2013-01-18 21:12:00,63.0,56.0,30.21,NNE,17,4.0,8.0,78,0.00,,,0.00,,2013-01-19 02:12:00,
2013-01-18 21:23:00,63.0,56.0,30.21,NNE,23,3.0,7.0,79,0.00,,,0.00,,2013-01-19 02:23:00,
2013-01-18 21:33:00,63.0,56.0,30.21,NNW,343,3.0,7.0,79,0.00,,,0.00,,2013-01-19 02:33:00,
2013-01-18 21:43:00,63.0,56.0,30.21,NNW,343,3.0,7.0,79,0.00,,,0.00,,2013-01-19 02:43:00,
2013-01-18 21:53:00,63.0,57.0,30.22,NE,42,5.0,10.0,82,0.00,,,0.00,,2013-01-19 02:53:00,
2013-01-18 22:03:00,62.0,57.0,30.22,North,353,5.0,9.0,83,0.00,,,0.00,,2013-01-19 03:03:00,
2013-01-18 22:12:00,62.0,57.0,30.22,North,353,5.0,9.0,83,0.00,,,0.00,,2013-01-19 03:12:00,
2013-01-18 22:22:00,62.0,58.0,30.22,NE,34,4.0,12.0,86,0.00,,,0.00,,2013-01-19 03:22:00,
2013-01-18 22:33:00,62.0,58.0,30.22,North,358,5.0,10.0,87,0.00,,,0.00,,2013-01-19 03:33:00,
2013-01-18 22:43:00,62.0,58.0,30.22,North,358,5.0,10.0,87,0.00,,,0.00,,2013-01-19 03:43:00,
2013-01-18 22:53:00,61.0,57.0,30.21,NNE,23,7.0,12.0,88,0.00,,,0.00,,2013-01-19 03:53:00,
2013-01-18 23:02:00,61.0,58.0,30.21,NE,50,2.0,12.0,89,0.00,,,0.00,,2013-01-19 04:02:00,
2013-01-18 23:12:00,61.0,58.0,30.21,NE,50,2.0,12.0,89,0.00,,,0.00,,2013-01-19 04:12:00,
2013-01-18 23:22:00,61.0,58.0,30.21,NNE,19,5.0,9.0,90,0.00,,,0.00,,2013-01-19 04:22:00,
2013-01-18 23:33:00,61.0,58.0,30.21,NE,46,5.0,12.0,91,0.00,,,0.00,,2013-01-19 04:33:00,
2013-01-18 23:42:00,61.0,58.0,30.21,NE,46,5.0,12.0,91,0.00,,,0.00,,2013-01-19 04:42:00,
2013-01-18 23:53:00,60.0,57.0,30.21,NNW,344,3.0,9.0,91,0.00,,,0.00,,2013-01-19 04:53:00,